sensor_id;sensor_type;location;lat;lon;timestamp;pressure;altitude;pressure_sealevel;temperature;humidity
24230;BME280;12362;50.004;8.006;2023-12-04T00:02:10;100881.88;;;-1.04;100.00
24230;BME280;12362;50.004;8.006;2023-12-04T00:04:35;100890.34;;;-1.10;100.00
24230;BME280;12362;50.004;8.006;2023-12-04T00:07:01;100875.94;;;-1.09;100.00
24230;BME280;12362;50.004;8.006;2023-12-04T00:09:26;100874.25;;;-1.07;100.00
24230;BME280;12362;50.004;8.006;2023-12-04T00:11:52;100874.25;;;-1.06;100.00
24230;BME280;12362;50.004;8.006;2023-12-04T00:14:18;100865.72;;;-1.12;100.00
24230;BME280;12362;50.004;8.006;2023-12-04T00:16:43;100864.00;;;-1.15;100.00
24230;BME280;12362;50.004;8.006;2023-12-04T00:19:09;100856.34;;;-1.18;100.00
24230;BME280;12362;50.004;8.006;2023-12-04T00:21:34;100856.31;;;-1.25;100.00
24230;BME280;12362;50.004;8.006;2023-12-04T00:24:00;100846.97;;;-1.28;100.00
24230;BME280;12362;50.004;8.006;2023-12-04T00:26:25;100841.84;;;-1.31;100.00
24230;BME280;12362;50.004;8.006;2023-12-04T00:28:51;100841.84;;;-1.32;100.00
24230;BME280;12362;50.004;8.006;2023-12-04T00:31:16;100838.44;;;-1.33;100.00
24230;BME280;12362;50.004;8.006;2023-12-04T00:33:42;100840.94;;;-1.37;100.00
24230;BME280;12362;50.004;8.006;2023-12-04T00:36:08;100832.47;;;-1.42;100.00
24230;BME280;12362;50.004;8.006;2023-12-04T00:38:34;100822.22;;;-1.47;100.00
24230;BME280;12362;50.004;8.006;2023-12-04T00:40:59;100828.06;;;-1.60;100.00
24230;BME280;12362;50.004;8.006;2023-12-04T00:43:25;100819.56;;;-1.66;100.00
24230;BME280;12362;50.004;8.006;2023-12-04T00:45:50;100810.25;;;-1.67;100.00
24230;BME280;12362;50.004;8.006;2023-12-04T00:48:16;100810.22;;;-1.69;100.00
24230;BME280;12362;50.004;8.006;2023-12-04T00:50:41;100811.94;;;-1.63;100.00
24230;BME280;12362;50.004;8.006;2023-12-04T00:53:07;100815.38;;;-1.57;100.00
24230;BME280;12362;50.004;8.006;2023-12-04T00:55:32;100817.91;;;-1.57;100.00
24230;BME280;12362;50.004;8.006;2023-12-04T00:57:58;100816.25;;;-1.56;100.00
24230;BME280;12362;50.004;8.006;2023-12-04T01:00:23;100810.28;;;-1.58;100.00
24230;BME280;12362;50.004;8.006;2023-12-04T01:02:49;100804.31;;;-1.63;100.00
24230;BME280;12362;50.004;8.006;2023-12-04T01:05:14;100806.81;;;-1.69;100.00
24230;BME280;12362;50.004;8.006;2023-12-04T01:07:39;100804.22;;;-1.75;100.00
24230;BME280;12362;50.004;8.006;2023-12-04T01:10:06;100799.13;;;-1.77;100.00
24230;BME280;12362;50.004;8.006;2023-12-04T01:12:31;100792.31;;;-1.81;100.00
24230;BME280;12362;50.004;8.006;2023-12-04T01:14:57;100799.13;;;-1.78;100.00
24230;BME280;12362;50.004;8.006;2023-12-04T01:17:22;100798.31;;;-1.70;100.00
24230;BME280;12362;50.004;8.006;2023-12-04T01:19:49;100794.97;;;-1.66;100.00
24230;BME280;12362;50.004;8.006;2023-12-04T01:22:14;100798.34;;;-1.65;100.00
24230;BME280;12362;50.004;8.006;2023-12-04T01:24:40;100797.47;;;-1.75;100.00
24230;BME280;12362;50.004;8.006;2023-12-04T01:27:05;100801.66;;;-1.80;100.00
24230;BME280;12362;50.004;8.006;2023-12-04T01:29:31;100794.88;;;-1.79;100.00
24230;BME280;12362;50.004;8.006;2023-12-04T01:31:57;100788.09;;;-1.80;100.00
24230;BME280;12362;50.004;8.006;2023-12-04T01:34:23;100788.00;;;-1.89;100.00
24230;BME280;12362;50.004;8.006;2023-12-04T01:36:48;100797.41;;;-1.82;100.00
24230;BME280;12362;50.004;8.006;2023-12-04T01:39:14;100790.63;;;-1.80;100.00
24230;BME280;12362;50.004;8.006;2023-12-04T01:41:39;100793.22;;;-1.74;100.00
24230;BME280;12362;50.004;8.006;2023-12-04T01:44:05;100792.38;;;-1.75;100.00
24230;BME280;12362;50.004;8.006;2023-12-04T01:46:31;100794.09;;;-1.68;100.00
24230;BME280;12362;50.004;8.006;2023-12-04T01:48:58;100790.69;;;-1.71;100.00
24230;BME280;12362;50.004;8.006;2023-12-04T01:51:24;100798.28;;;-1.79;100.00
24230;BME280;12362;50.004;8.006;2023-12-04T01:53:51;100788.00;;;-1.90;100.00
24230;BME280;12362;50.004;8.006;2023-12-04T01:56:19;100787.97;;;-1.96;100.00
24230;BME280;12362;50.004;8.006;2023-12-04T01:58:45;100786.28;;;-1.96;100.00
24230;BME280;12362;50.004;8.006;2023-12-04T02:01:11;100779.47;;;-1.98;100.00
24230;BME280;12362;50.004;8.006;2023-12-04T02:03:37;100778.66;;;-1.97;100.00
24230;BME280;12362;50.004;8.006;2023-12-04T02:06:03;100773.53;;;-1.99;100.00
24230;BME280;12362;50.004;8.006;2023-12-04T02:08:30;100765.91;;;-1.99;100.00
24230;BME280;12362;50.004;8.006;2023-12-04T02:10:56;100769.31;;;-1.97;100.00
24230;BME280;12362;50.004;8.006;2023-12-04T02:13:22;100762.47;;;-2.01;100.00
24230;BME280;12362;50.004;8.006;2023-12-04T02:15:49;100766.72;;;-2.04;100.00
24230;BME280;12362;50.004;8.006;2023-12-04T02:18:17;100765.84;;;-2.08;100.00
24230;BME280;12362;50.004;8.006;2023-12-04T02:20:43;100762.50;;;-2.04;100.00
24230;BME280;12362;50.004;8.006;2023-12-04T02:23:08;100759.03;;;-2.09;100.00
24230;BME280;12362;50.004;8.006;2023-12-04T02:25:34;100753.97;;;-2.09;100.00
24230;BME280;12362;50.004;8.006;2023-12-04T02:28:02;100750.59;;;-2.08;100.00
24230;BME280;12362;50.004;8.006;2023-12-04T02:30:31;100757.41;;;-2.02;100.00
24230;BME280;12362;50.004;8.006;2023-12-04T02:32:58;100748.94;;;-2.00;100.00
24230;BME280;12362;50.004;8.006;2023-12-04T02:35:27;100744.69;;;-2.01;100.00
24230;BME280;12362;50.004;8.006;2023-12-04T02:37:55;100731.94;;;-2.08;100.00
24230;BME280;12362;50.004;8.006;2023-12-04T02:40:21;100728.50;;;-2.12;100.00
24230;BME280;12362;50.004;8.006;2023-12-04T02:42:47;100723.44;;;-2.10;100.00
24230;BME280;12362;50.004;8.006;2023-12-04T02:45:12;100718.38;;;-2.06;100.00
24230;BME280;12362;50.004;8.006;2023-12-04T02:47:38;100712.44;;;-2.06;100.00
24230;BME280;12362;50.004;8.006;2023-12-04T02:50:03;100710.75;;;-2.06;100.00
24230;BME280;12362;50.004;8.006;2023-12-04T02:52:29;100702.28;;;-2.05;100.00
24230;BME280;12362;50.004;8.006;2023-12-04T02:54:54;100697.22;;;-2.05;100.00
24230;BME280;12362;50.004;8.006;2023-12-04T02:57:20;100685.34;;;-2.06;100.00
24230;BME280;12362;50.004;8.006;2023-12-04T02:59:47;100682.78;;;-2.07;100.00
24230;BME280;12362;50.004;8.006;2023-12-04T03:02:12;100683.63;;;-2.05;100.00
24230;BME280;12362;50.004;8.006;2023-12-04T03:04:38;100685.34;;;-2.06;100.00
24230;BME280;12362;50.004;8.006;2023-12-04T03:07:04;100680.28;;;-2.03;100.00
24230;BME280;12362;50.004;8.006;2023-12-04T03:09:29;100682.81;;;-2.01;100.00
24230;BME280;12362;50.004;8.006;2023-12-04T03:11:55;100678.56;;;-2.01;100.00
24230;BME280;12362;50.004;8.006;2023-12-04T03:14:20;100680.28;;;-2.03;100.00
24230;BME280;12362;50.004;8.006;2023-12-04T03:16:46;100682.78;;;-2.06;100.00
24230;BME280;12362;50.004;8.006;2023-12-04T03:19:11;100677.69;;;-2.06;100.00
24230;BME280;12362;50.004;8.006;2023-12-04T03:21:37;100675.16;;;-2.06;100.00
24230;BME280;12362;50.004;8.006;2023-12-04T03:24:02;100661.56;;;-2.11;100.00
24230;BME280;12362;50.004;8.006;2023-12-04T03:26:28;100664.09;;;-2.12;100.00
24230;BME280;12362;50.004;8.006;2023-12-04T03:28:53;100667.47;;;-2.15;100.00
24230;BME280;12362;50.004;8.006;2023-12-04T03:31:19;100661.50;;;-2.18;100.00
24230;BME280;12362;50.004;8.006;2023-12-04T03:33:44;100662.41;;;-2.13;100.00
24230;BME280;12362;50.004;8.006;2023-12-04T03:36:10;100647.16;;;-2.15;100.00
24230;BME280;12362;50.004;8.006;2023-12-04T03:38:35;100649.66;;;-2.19;100.00
24230;BME280;12362;50.004;8.006;2023-12-04T03:41:01;100654.75;;;-2.19;100.00
24230;BME280;12362;50.004;8.006;2023-12-04T03:43:27;100657.28;;;-2.18;100.00
24230;BME280;12362;50.004;8.006;2023-12-04T03:45:52;100649.66;;;-2.16;100.00
24230;BME280;12362;50.004;8.006;2023-12-04T03:48:18;100646.31;;;-2.12;100.00
24230;BME280;12362;50.004;8.006;2023-12-04T03:50:43;100651.38;;;-2.12;100.00
24230;BME280;12362;50.004;8.006;2023-12-04T03:53:08;100654.75;;;-2.12;100.00
24230;BME280;12362;50.004;8.006;2023-12-04T03:55:34;100662.41;;;-2.09;100.00
24230;BME280;12362;50.004;8.006;2023-12-04T03:57:59;100665.81;;;-2.05;100.00
24230;BME280;12362;50.004;8.006;2023-12-04T04:00:25;100665.00;;;-2.01;100.00
24230;BME280;12362;50.004;8.006;2023-12-04T04:02:50;100665.03;;;-1.98;100.00
24230;BME280;12362;50.004;8.006;2023-12-04T04:05:16;100665.91;;;-1.96;100.00
24230;BME280;12362;50.004;8.006;2023-12-04T04:07:41;100661.63;;;-1.99;100.00
24230;BME280;12362;50.004;8.006;2023-12-04T04:10:07;100665.03;;;-1.97;100.00
24230;BME280;12362;50.004;8.006;2023-12-04T04:12:33;100656.56;;;-1.97;100.00
24230;BME280;12362;50.004;8.006;2023-12-04T04:14:59;100653.19;;;-1.96;100.00
24230;BME280;12362;50.004;8.006;2023-12-04T04:17:25;100648.06;;;-1.99;100.00
24230;BME280;12362;50.004;8.006;2023-12-04T04:19:54;100648.91;;;-2.00;100.00
24230;BME280;12362;50.004;8.006;2023-12-04T04:22:21;100635.34;;;-2.02;100.00
24230;BME280;12362;50.004;8.006;2023-12-04T04:24:47;100629.41;;;-2.00;100.00
24230;BME280;12362;50.004;8.006;2023-12-04T04:27:13;100628.53;;;-2.03;100.00
24230;BME280;12362;50.004;8.006;2023-12-04T04:29:38;100623.47;;;-2.03;100.00
24230;BME280;12362;50.004;8.006;2023-12-04T04:32:04;100622.63;;;-2.02;100.00
24230;BME280;12362;50.004;8.006;2023-12-04T04:34:30;100630.25;;;-2.04;100.00
24230;BME280;12362;50.004;8.006;2023-12-04T04:36:55;100634.50;;;-2.00;100.00
24230;BME280;12362;50.004;8.006;2023-12-04T04:39:21;100630.25;;;-1.98;100.00
24230;BME280;12362;50.004;8.006;2023-12-04T04:41:46;100630.28;;;-1.93;100.00
24230;BME280;12362;50.004;8.006;2023-12-04T04:44:12;100632.00;;;-1.91;100.00
24230;BME280;12362;50.004;8.006;2023-12-04T04:46:37;100640.50;;;-1.86;100.00
24230;BME280;12362;50.004;8.006;2023-12-04T04:49:03;100637.09;;;-1.83;100.00
24230;BME280;12362;50.004;8.006;2023-12-04T04:51:32;100632.03;;;-1.83;100.00
24230;BME280;12362;50.004;8.006;2023-12-04T04:53:58;100627.75;;;-1.93;100.00
24230;BME280;12362;50.004;8.006;2023-12-04T04:56:23;100626.03;;;-2.02;100.00
24230;BME280;12362;50.004;8.006;2023-12-04T04:58:49;100620.88;;;-2.06;100.00
24230;BME280;12362;50.004;8.006;2023-12-04T05:01:15;100603.06;;;-2.11;100.00
24230;BME280;12362;50.004;8.006;2023-12-04T05:03:40;100602.22;;;-2.10;100.00
24230;BME280;12362;50.004;8.006;2023-12-04T05:06:06;100601.41;;;-2.07;100.00
24230;BME280;12362;50.004;8.006;2023-12-04T05:08:32;100592.94;;;-2.05;100.00
24230;BME280;12362;50.004;8.006;2023-12-04T05:10:57;100598.03;;;-2.03;100.00
24230;BME280;12362;50.004;8.006;2023-12-04T05:13:22;100597.16;;;-2.07;100.00
24230;BME280;12362;50.004;8.006;2023-12-04T05:15:48;100592.09;;;-2.07;100.00
24230;BME280;12362;50.004;8.006;2023-12-04T05:18:13;100581.94;;;-2.02;100.00
24230;BME280;12362;50.004;8.006;2023-12-04T05:20:39;100582.75;;;-2.09;100.00
24230;BME280;12362;50.004;8.006;2023-12-04T05:23:07;100581.91;;;-2.08;100.00
24230;BME280;12362;50.004;8.006;2023-12-04T05:25:33;100574.28;;;-2.07;100.00
24230;BME280;12362;50.004;8.006;2023-12-04T05:27:58;100580.22;;;-2.03;100.00
24230;BME280;12362;50.004;8.006;2023-12-04T05:30:24;100570.06;;;-1.99;100.00
24230;BME280;12362;50.004;8.006;2023-12-04T05:32:49;100577.72;;;-2.02;100.00
24230;BME280;12362;50.004;8.006;2023-12-04T05:35:15;100574.31;;;-2.02;100.00
24230;BME280;12362;50.004;8.006;2023-12-04T05:37:41;100574.31;;;-1.99;100.00
24230;BME280;12362;50.004;8.006;2023-12-04T05:40:07;100574.31;;;-1.99;100.00
24230;BME280;12362;50.004;8.006;2023-12-04T05:42:33;100567.56;;;-1.97;100.00
24230;BME280;12362;50.004;8.006;2023-12-04T05:44:58;100561.59;;;-1.93;100.00
24230;BME280;12362;50.004;8.006;2023-12-04T05:47:26;100563.28;;;-2.00;100.00
24230;BME280;12362;50.004;8.006;2023-12-04T05:49:51;100553.94;;;-2.01;100.00
24230;BME280;12362;50.004;8.006;2023-12-04T05:52:17;100562.44;;;-2.00;100.00
24230;BME280;12362;50.004;8.006;2023-12-04T05:54:42;100555.66;;;-2.03;100.00
24230;BME280;12362;50.004;8.006;2023-12-04T05:57:11;100555.63;;;-2.04;100.00
24230;BME280;12362;50.004;8.006;2023-12-04T05:59:36;100554.81;;;-2.02;100.00
24230;BME280;12362;50.004;8.006;2023-12-04T06:02:02;100541.28;;;-1.96;100.00
24230;BME280;12362;50.004;8.006;2023-12-04T06:04:28;100541.28;;;-1.96;100.00
24230;BME280;12362;50.004;8.006;2023-12-04T06:06:59;100542.97;;;-1.94;100.00
24230;BME280;12362;50.004;8.006;2023-12-04T06:09:25;100536.19;;;-1.96;100.00
24230;BME280;12362;50.004;8.006;2023-12-04T06:11:50;100529.41;;;-1.93;100.00
24230;BME280;12362;50.004;8.006;2023-12-04T06:14:16;100533.63;;;-1.93;100.00
24230;BME280;12362;50.004;8.006;2023-12-04T06:16:41;100537.88;;;-1.88;100.00
24230;BME280;12362;50.004;8.006;2023-12-04T06:19:07;100531.97;;;-1.85;100.00
24230;BME280;12362;50.004;8.006;2023-12-04T06:21:32;100534.53;;;-1.85;100.00
24230;BME280;12362;50.004;8.006;2023-12-04T06:23:59;100531.97;;;-1.85;100.00
24230;BME280;12362;50.004;8.006;2023-12-04T06:26:25;100526.91;;;-1.81;100.00
24230;BME280;12362;50.004;8.006;2023-12-04T06:28:51;100530.31;;;-1.75;100.00
24230;BME280;12362;50.004;8.006;2023-12-04T06:31:16;100524.34;;;-1.80;100.00
24230;BME280;12362;50.004;8.006;2023-12-04T06:33:42;100520.94;;;-1.82;100.00
24230;BME280;12362;50.004;8.006;2023-12-04T06:36:08;100506.56;;;-1.81;100.00
24230;BME280;12362;50.004;8.006;2023-12-04T06:38:39;100483.63;;;-1.87;100.00
24230;BME280;12362;50.004;8.006;2023-12-04T06:41:05;100482.75;;;-1.93;100.00
24230;BME280;12362;50.004;8.006;2023-12-04T06:43:31;100492.16;;;-1.75;100.00
24230;BME280;12362;50.004;8.006;2023-12-04T06:45:58;100490.47;;;-1.67;100.00
24230;BME280;12362;50.004;8.006;2023-12-04T06:48:28;100485.38;;;-1.71;100.00
24230;BME280;12362;50.004;8.006;2023-12-04T06:50:54;100487.03;;;-1.76;100.00
24230;BME280;12362;50.004;8.006;2023-12-04T06:53:19;100477.72;;;-1.79;100.00
24230;BME280;12362;50.004;8.006;2023-12-04T06:55:44;100473.47;;;-1.75;100.00
24230;BME280;12362;50.004;8.006;2023-12-04T06:58:10;100478.56;;;-1.77;100.00
24230;BME280;12362;50.004;8.006;2023-12-04T07:00:35;100465.03;;;-1.73;100.00
24230;BME280;12362;50.004;8.006;2023-12-04T07:03:01;100470.94;;;-1.75;100.00
24230;BME280;12362;50.004;8.006;2023-12-04T07:05:26;100454.00;;;-1.75;100.00
24230;BME280;12362;50.004;8.006;2023-12-04T07:07:52;100453.13;;;-1.68;100.00
24230;BME280;12362;50.004;8.006;2023-12-04T07:10:18;100453.97;;;-1.64;100.00
24230;BME280;12362;50.004;8.006;2023-12-04T07:12:44;100452.31;;;-1.61;100.00
24230;BME280;12362;50.004;8.006;2023-12-04T07:15:10;100446.34;;;-1.61;100.00
24230;BME280;12362;50.004;8.006;2023-12-04T07:17:37;100445.50;;;-1.65;100.00
24230;BME280;12362;50.004;8.006;2023-12-04T07:20:03;100450.59;;;-1.57;100.00
24230;BME280;12362;50.004;8.006;2023-12-04T07:22:43;100448.06;;;-1.53;100.00
24230;BME280;12362;50.004;8.006;2023-12-04T07:25:09;100452.28;;;-1.55;100.00
24230;BME280;12362;50.004;8.006;2023-12-04T07:27:34;100448.06;;;-1.56;100.00
24230;BME280;12362;50.004;8.006;2023-12-04T07:30:00;100444.69;;;-1.49;100.00
24230;BME280;12362;50.004;8.006;2023-12-04T07:32:26;100454.84;;;-1.46;100.00
24230;BME280;12362;50.004;8.006;2023-12-04T07:34:51;100448.06;;;-1.41;100.00
24230;BME280;12362;50.004;8.006;2023-12-04T07:37:17;100452.31;;;-1.44;100.00
24230;BME280;12362;50.004;8.006;2023-12-04T07:39:43;100457.38;;;-1.35;100.00
24230;BME280;12362;50.004;8.006;2023-12-04T07:42:11;100453.16;;;-1.30;100.00
24230;BME280;12362;50.004;8.006;2023-12-04T07:44:37;100451.44;;;-1.34;100.00
24230;BME280;12362;50.004;8.006;2023-12-04T07:47:03;100450.63;;;-1.42;100.00
24230;BME280;12362;50.004;8.006;2023-12-04T07:49:28;100450.59;;;-1.35;100.00
24230;BME280;12362;50.004;8.006;2023-12-04T07:51:54;100448.06;;;-1.29;100.00
24230;BME280;12362;50.004;8.006;2023-12-04T07:54:19;100440.41;;;-1.21;100.00
24230;BME280;12362;50.004;8.006;2023-12-04T07:56:45;100447.16;;;-1.17;100.00
24230;BME280;12362;50.004;8.006;2023-12-04T07:59:10;100441.25;;;-1.15;100.00
24230;BME280;12362;50.004;8.006;2023-12-04T08:01:35;100448.03;;;-1.17;100.00
24230;BME280;12362;50.004;8.006;2023-12-04T08:04:01;100437.84;;;-1.17;100.00
24230;BME280;12362;50.004;8.006;2023-12-04T08:06:27;100434.44;;;-1.07;100.00
24230;BME280;12362;50.004;8.006;2023-12-04T08:08:53;100431.91;;;-1.11;100.00
24230;BME280;12362;50.004;8.006;2023-12-04T08:11:19;100423.41;;;-1.07;100.00
24230;BME280;12362;50.004;8.006;2023-12-04T08:13:45;100425.09;;;-1.02;100.00
24230;BME280;12362;50.004;8.006;2023-12-04T08:16:14;100419.13;;;-1.02;100.00
24230;BME280;12362;50.004;8.006;2023-12-04T08:18:42;100421.69;;;-1.01;100.00
24230;BME280;12362;50.004;8.006;2023-12-04T08:21:09;100405.53;;;-0.93;100.00
24230;BME280;12362;50.004;8.006;2023-12-04T08:23:34;100405.50;;;-0.85;100.00
24230;BME280;12362;50.004;8.006;2023-12-04T08:26:00;100397.88;;;-0.90;100.00
24230;BME280;12362;50.004;8.006;2023-12-04T08:28:25;100404.63;;;-0.80;100.00
24230;BME280;12362;50.004;8.006;2023-12-04T08:30:51;100404.63;;;-0.77;100.00
24230;BME280;12362;50.004;8.006;2023-12-04T08:33:16;100402.94;;;-0.82;100.00
24230;BME280;12362;50.004;8.006;2023-12-04T08:35:43;100386.78;;;-0.72;100.00
24230;BME280;12362;50.004;8.006;2023-12-04T08:38:08;100391.84;;;-0.68;100.00
24230;BME280;12362;50.004;8.006;2023-12-04T08:40:34;100385.88;;;-0.62;100.00
24230;BME280;12362;50.004;8.006;2023-12-04T08:42:59;100379.06;;;-0.59;100.00
24230;BME280;12362;50.004;8.006;2023-12-04T08:45:25;100379.94;;;-0.60;100.00
24230;BME280;12362;50.004;8.006;2023-12-04T08:47:50;100374.81;;;-0.57;100.00
24230;BME280;12362;50.004;8.006;2023-12-04T08:50:16;100371.38;;;-0.50;100.00
24230;BME280;12362;50.004;8.006;2023-12-04T08:52:42;100367.97;;;-0.53;100.00
24230;BME280;12362;50.004;8.006;2023-12-04T08:55:08;100373.03;;;-0.46;100.00
24230;BME280;12362;50.004;8.006;2023-12-04T08:57:33;100367.94;;;-0.44;100.00
24230;BME280;12362;50.004;8.006;2023-12-04T08:59:59;100362.88;;;-0.52;100.00
24230;BME280;12362;50.004;8.006;2023-12-04T09:02:24;100370.56;;;-0.56;100.00
24230;BME280;12362;50.004;8.006;2023-12-04T09:04:50;100371.38;;;-0.53;100.00
24230;BME280;12362;50.004;8.006;2023-12-04T09:07:15;100365.44;;;-0.52;100.00
24230;BME280;12362;50.004;8.006;2023-12-04T09:09:41;100371.38;;;-0.53;100.00
24230;BME280;12362;50.004;8.006;2023-12-04T09:12:07;100373.91;;;-0.47;100.00
24230;BME280;12362;50.004;8.006;2023-12-04T09:14:34;100375.63;;;-0.53;100.00
24230;BME280;12362;50.004;8.006;2023-12-04T09:17:00;100373.06;;;-0.50;100.00
24230;BME280;12362;50.004;8.006;2023-12-04T09:19:25;100373.06;;;-0.53;100.00
24230;BME280;12362;50.004;8.006;2023-12-04T09:21:51;100368.88;;;-0.60;100.00
24230;BME280;12362;50.004;8.006;2023-12-04T09:24:16;100363.78;;;-0.62;100.00
24230;BME280;12362;50.004;8.006;2023-12-04T09:26:42;100366.31;;;-0.59;100.00
24230;BME280;12362;50.004;8.006;2023-12-04T09:29:11;100369.66;;;-0.43;100.00
24230;BME280;12362;50.004;8.006;2023-12-04T09:31:36;100369.53;;;-0.28;100.00
24230;BME280;12362;50.004;8.006;2023-12-04T09:34:02;100378.06;;;-0.31;100.00
24230;BME280;12362;50.004;8.006;2023-12-04T09:36:27;100370.47;;;-0.41;100.00
24230;BME280;12362;50.004;8.006;2023-12-04T09:38:53;100379.00;;;-0.45;100.00
24230;BME280;12362;50.004;8.006;2023-12-04T09:41:19;100379.81;;;-0.39;100.00
24230;BME280;12362;50.004;8.006;2023-12-04T09:43:46;100379.78;;;-0.33;100.00
24230;BME280;12362;50.004;8.006;2023-12-04T09:46:12;100369.59;;;-0.34;100.00
24230;BME280;12362;50.004;8.006;2023-12-04T09:48:40;100369.63;;;-0.36;100.00
24230;BME280;12362;50.004;8.006;2023-12-04T09:51:08;100355.19;;;-0.40;100.00
24230;BME280;12362;50.004;8.006;2023-12-04T09:53:35;100346.66;;;-0.40;100.00
24230;BME280;12362;50.004;8.006;2023-12-04T09:56:03;100350.06;;;-0.41;100.00
24230;BME280;12362;50.004;8.006;2023-12-04T09:58:29;100352.53;;;-0.29;100.00
24230;BME280;12362;50.004;8.006;2023-12-04T10:00:58;100346.56;;;-0.22;100.00
24230;BME280;12362;50.004;8.006;2023-12-04T10:03:25;100341.34;;;-0.06;100.00
24230;BME280;12362;50.004;8.006;2023-12-04T10:05:50;100347.25;;;-0.03;100.00
24230;BME280;12362;50.004;8.006;2023-12-04T10:08:16;100333.56;;;0.07;100.00
24230;BME280;12362;50.004;8.006;2023-12-04T10:10:42;100343.69;;;0.21;100.00
24230;BME280;12362;50.004;8.006;2023-12-04T10:13:08;100351.38;;;0.16;100.00
24230;BME280;12362;50.004;8.006;2023-12-04T10:15:34;100345.28;;;0.32;100.00
24230;BME280;12362;50.004;8.006;2023-12-04T10:18:24;100343.50;;;0.39;100.00
24230;BME280;12362;50.004;8.006;2023-12-04T10:20:54;100334.09;;;0.42;100.00
24230;BME280;12362;50.004;8.006;2023-12-04T10:23:22;100327.25;;;0.47;100.00
24230;BME280;12362;50.004;8.006;2023-12-04T10:25:49;100313.59;;;0.53;100.00
24230;BME280;12362;50.004;8.006;2023-12-04T10:28:18;100316.97;;;0.55;100.00
24230;BME280;12362;50.004;8.006;2023-12-04T10:30:44;100306.78;;;0.52;100.00
24230;BME280;12362;50.004;8.006;2023-12-04T10:33:12;100299.94;;;0.57;100.00
24230;BME280;12362;50.004;8.006;2023-12-04T10:35:39;100297.47;;;0.46;100.00
24230;BME280;12362;50.004;8.006;2023-12-04T10:38:07;100296.69;;;0.41;100.00
24230;BME280;12362;50.004;8.006;2023-12-04T10:40:35;100301.13;;;0.23;100.00
24230;BME280;12362;50.004;8.006;2023-12-04T10:43:11;100285.03;;;0.16;100.00
24230;BME280;12362;50.004;8.006;2023-12-04T10:45:38;100277.38;;;0.16;100.00
24230;BME280;12362;50.004;8.006;2023-12-04T10:48:05;100280.84;;;0.08;100.00
24230;BME280;12362;50.004;8.006;2023-12-04T10:50:32;100274.91;;;0.06;100.00
24230;BME280;12362;50.004;8.006;2023-12-04T10:53:00;100274.03;;;0.08;100.00
24230;BME280;12362;50.004;8.006;2023-12-04T10:55:26;100269.88;;;-0.03;100.00
24230;BME280;12362;50.004;8.006;2023-12-04T10:57:53;100270.81;;;-0.14;100.00
24230;BME280;12362;50.004;8.006;2023-12-04T11:00:20;100269.06;;;-0.08;100.00
24230;BME280;12362;50.004;8.006;2023-12-04T11:02:48;100270.88;;;-0.20;100.00
24230;BME280;12362;50.004;8.006;2023-12-04T11:05:16;100267.50;;;-0.25;100.00
24230;BME280;12362;50.004;8.006;2023-12-04T11:07:57;100259.88;;;-0.27;100.00
24230;BME280;12362;50.004;8.006;2023-12-04T11:10:26;100262.59;;;-0.46;100.00
24230;BME280;12362;50.004;8.006;2023-12-04T11:13:22;100243.94;;;-0.56;100.00
24230;BME280;12362;50.004;8.006;2023-12-04T11:15:50;100237.19;;;-0.64;100.00
24230;BME280;12362;50.004;8.006;2023-12-04T11:18:20;100232.91;;;-0.56;100.00
24230;BME280;12362;50.004;8.006;2023-12-04T11:20:51;100224.47;;;-0.63;100.00
24230;BME280;12362;50.004;8.006;2023-12-04T11:23:19;100219.34;;;-0.61;100.00
24230;BME280;12362;50.004;8.006;2023-12-04T11:25:45;100227.00;;;-0.64;100.00
24230;BME280;12362;50.004;8.006;2023-12-04T11:28:13;100213.53;;;-0.78;100.00
24230;BME280;12362;50.004;8.006;2023-12-04T11:30:39;100212.63;;;-0.74;100.00
24230;BME280;12362;50.004;8.006;2023-12-04T11:33:05;100215.09;;;-0.59;100.00
24230;BME280;12362;50.004;8.006;2023-12-04T11:35:30;100209.13;;;-0.58;100.00
24230;BME280;12362;50.004;8.006;2023-12-04T11:37:58;100202.41;;;-0.65;100.00
24230;BME280;12362;50.004;8.006;2023-12-04T11:40:24;100197.28;;;-0.64;100.00
24230;BME280;12362;50.004;8.006;2023-12-04T11:42:50;100189.66;;;-0.65;100.00
24230;BME280;12362;50.004;8.006;2023-12-04T11:45:19;100194.81;;;-0.74;100.00
24230;BME280;12362;50.004;8.006;2023-12-04T11:47:54;100187.25;;;-0.85;100.00
24230;BME280;12362;50.004;8.006;2023-12-04T11:50:20;100177.88;;;-0.81;100.00
24230;BME280;12362;50.004;8.006;2023-12-04T11:52:47;100179.56;;;-0.80;100.00
24230;BME280;12362;50.004;8.006;2023-12-04T11:55:16;100171.94;;;-0.80;100.00
24230;BME280;12362;50.004;8.006;2023-12-04T11:57:41;100170.13;;;-0.66;100.00
24230;BME280;12362;50.004;8.006;2023-12-04T12:02:40;100158.22;;;-0.66;100.00
24230;BME280;12362;50.004;8.006;2023-12-04T12:05:06;100161.66;;;-0.71;100.00
24230;BME280;12362;50.004;8.006;2023-12-04T12:07:36;100145.53;;;-0.72;100.00
24230;BME280;12362;50.004;8.006;2023-12-04T12:10:08;100151.59;;;-0.85;100.00
24230;BME280;12362;50.004;8.006;2023-12-04T12:13:13;100148.19;;;-0.85;100.00
24230;BME280;12362;50.004;8.006;2023-12-04T12:15:39;100138.78;;;-0.79;100.00
24230;BME280;12362;50.004;8.006;2023-12-04T12:18:06;100135.41;;;-0.81;100.00
24230;BME280;12362;50.004;8.006;2023-12-04T12:20:31;100134.56;;;-0.83;100.00
24230;BME280;12362;50.004;8.006;2023-12-04T12:22:57;100125.25;;;-0.88;100.00
24230;BME280;12362;50.004;8.006;2023-12-04T12:25:23;100123.50;;;-0.82;100.00
24230;BME280;12362;50.004;8.006;2023-12-04T12:27:50;100116.78;;;-0.89;100.00
24230;BME280;12362;50.004;8.006;2023-12-04T12:30:15;100102.31;;;-0.85;100.00
24230;BME280;12362;50.004;8.006;2023-12-04T12:32:41;100098.94;;;-0.89;100.00
24230;BME280;12362;50.004;8.006;2023-12-04T12:35:07;100101.53;;;-0.90;100.00
24230;BME280;12362;50.004;8.006;2023-12-04T12:37:35;100085.38;;;-0.91;100.00
24230;BME280;12362;50.004;8.006;2023-12-04T12:40:01;100068.38;;;-0.86;100.00